sensor_id;sensor_type;location;lat;lon;timestamp;temperature;humidity
4934;DHT22;2482;49.154;8.254;2023-04-03T00:01:06;4.20;99.90
4934;DHT22;2482;49.154;8.254;2023-04-03T00:03:34;4.20;99.90
4934;DHT22;2482;49.154;8.254;2023-04-03T00:06:01;4.10;99.90
4934;DHT22;2482;49.154;8.254;2023-04-03T00:08:28;4.00;99.90
4934;DHT22;2482;49.154;8.254;2023-04-03T00:10:57;3.90;99.90
4934;DHT22;2482;49.154;8.254;2023-04-03T00:13:25;3.80;99.90
4934;DHT22;2482;49.154;8.254;2023-04-03T00:15:52;3.90;99.90
4934;DHT22;2482;49.154;8.254;2023-04-03T00:18:20;3.80;99.90
4934;DHT22;2482;49.154;8.254;2023-04-03T00:20:48;3.70;99.90
4934;DHT22;2482;49.154;8.254;2023-04-03T00:23:16;3.80;99.90
4934;DHT22;2482;49.154;8.254;2023-04-03T00:25:43;3.90;99.90
4934;DHT22;2482;49.154;8.254;2023-04-03T00:28:10;3.90;99.90
4934;DHT22;2482;49.154;8.254;2023-04-03T00:30:37;3.90;99.90
4934;DHT22;2482;49.154;8.254;2023-04-03T00:33:05;3.80;99.90
4934;DHT22;2482;49.154;8.254;2023-04-03T00:35:34;3.70;99.90
4934;DHT22;2482;49.154;8.254;2023-04-03T00:38:01;3.80;99.90
4934;DHT22;2482;49.154;8.254;2023-04-03T00:40:34;3.60;99.90
4934;DHT22;2482;49.154;8.254;2023-04-03T00:43:13;3.50;99.90
4934;DHT22;2482;49.154;8.254;2023-04-03T00:45:44;3.50;99.90
4934;DHT22;2482;49.154;8.254;2023-04-03T00:48:20;3.50;99.90
4934;DHT22;2482;49.154;8.254;2023-04-03T00:50:50;3.60;99.90
4934;DHT22;2482;49.154;8.254;2023-04-03T00:53:23;3.60;99.90
4934;DHT22;2482;49.154;8.254;2023-04-03T00:55:57;3.80;99.90
4934;DHT22;2482;49.154;8.254;2023-04-03T00:58:32;3.60;99.90
4934;DHT22;2482;49.154;8.254;2023-04-03T01:01:05;3.50;99.90
4934;DHT22;2482;49.154;8.254;2023-04-03T01:03:33;3.40;99.90
4934;DHT22;2482;49.154;8.254;2023-04-03T01:06:01;3.40;99.90
4934;DHT22;2482;49.154;8.254;2023-04-03T01:08:28;3.40;99.90
4934;DHT22;2482;49.154;8.254;2023-04-03T01:10:55;3.40;99.90
4934;DHT22;2482;49.154;8.254;2023-04-03T01:13:29;3.30;99.90
4934;DHT22;2482;49.154;8.254;2023-04-03T01:16:01;3.20;99.90
4934;DHT22;2482;49.154;8.254;2023-04-03T01:18:31;3.00;99.90
4934;DHT22;2482;49.154;8.254;2023-04-03T01:24:11;3.10;99.90
4934;DHT22;2482;49.154;8.254;2023-04-03T01:26:55;3.10;99.90
4934;DHT22;2482;49.154;8.254;2023-04-03T01:29:22;3.10;99.90
4934;DHT22;2482;49.154;8.254;2023-04-03T01:31:53;3.20;99.90
4934;DHT22;2482;49.154;8.254;2023-04-03T01:34:23;3.30;99.90
4934;DHT22;2482;49.154;8.254;2023-04-03T01:36:51;3.10;99.90
4934;DHT22;2482;49.154;8.254;2023-04-03T01:39:19;3.20;99.90
4934;DHT22;2482;49.154;8.254;2023-04-03T01:41:47;3.30;99.90
4934;DHT22;2482;49.154;8.254;2023-04-03T01:44:15;3.40;99.90
4934;DHT22;2482;49.154;8.254;2023-04-03T01:46:42;3.40;99.90
4934;DHT22;2482;49.154;8.254;2023-04-03T01:49:09;3.30;99.90
4934;DHT22;2482;49.154;8.254;2023-04-03T01:51:36;3.30;99.90
4934;DHT22;2482;49.154;8.254;2023-04-03T01:54:04;3.30;99.90
4934;DHT22;2482;49.154;8.254;2023-04-03T01:56:31;3.20;99.90
4934;DHT22;2482;49.154;8.254;2023-04-03T01:58:58;3.20;99.90
4934;DHT22;2482;49.154;8.254;2023-04-03T02:01:25;3.10;99.90
4934;DHT22;2482;49.154;8.254;2023-04-03T02:03:52;3.20;99.90
4934;DHT22;2482;49.154;8.254;2023-04-03T02:06:19;3.20;99.90
4934;DHT22;2482;49.154;8.254;2023-04-03T02:08:46;3.10;99.90
4934;DHT22;2482;49.154;8.254;2023-04-03T02:11:13;3.00;99.90
4934;DHT22;2482;49.154;8.254;2023-04-03T02:13:40;3.20;99.90
4934;DHT22;2482;49.154;8.254;2023-04-03T02:16:09;3.00;99.90
4934;DHT22;2482;49.154;8.254;2023-04-03T02:18:38;3.10;99.90
4934;DHT22;2482;49.154;8.254;2023-04-03T02:21:05;3.00;99.90
4934;DHT22;2482;49.154;8.254;2023-04-03T02:23:32;3.00;99.90
4934;DHT22;2482;49.154;8.254;2023-04-03T02:26:08;3.10;99.90
4934;DHT22;2482;49.154;8.254;2023-04-03T02:28:37;3.00;99.90
4934;DHT22;2482;49.154;8.254;2023-04-03T02:31:05;3.00;99.90
4934;DHT22;2482;49.154;8.254;2023-04-03T02:33:33;3.00;99.90
4934;DHT22;2482;49.154;8.254;2023-04-03T02:36:05;3.00;99.90
4934;DHT22;2482;49.154;8.254;2023-04-03T02:38:33;3.00;99.90
4934;DHT22;2482;49.154;8.254;2023-04-03T02:41:04;2.80;99.90
4934;DHT22;2482;49.154;8.254;2023-04-03T02:43:33;2.90;99.90
4934;DHT22;2482;49.154;8.254;2023-04-03T02:46:00;2.90;99.90
4934;DHT22;2482;49.154;8.254;2023-04-03T02:48:27;2.90;99.90
4934;DHT22;2482;49.154;8.254;2023-04-03T02:50:55;2.80;99.90
4934;DHT22;2482;49.154;8.254;2023-04-03T02:53:22;2.80;99.90
4934;DHT22;2482;49.154;8.254;2023-04-03T02:55:49;2.70;99.90
4934;DHT22;2482;49.154;8.254;2023-04-03T02:58:16;2.80;99.90
4934;DHT22;2482;49.154;8.254;2023-04-03T03:00:43;2.80;99.90
4934;DHT22;2482;49.154;8.254;2023-04-03T03:03:10;2.80;99.90
4934;DHT22;2482;49.154;8.254;2023-04-03T03:05:37;3.00;99.90
4934;DHT22;2482;49.154;8.254;2023-04-03T03:08:04;2.90;99.90
4934;DHT22;2482;49.154;8.254;2023-04-03T03:10:31;2.80;99.90
4934;DHT22;2482;49.154;8.254;2023-04-03T03:12:58;2.80;99.90
4934;DHT22;2482;49.154;8.254;2023-04-03T03:15:25;2.80;99.90
4934;DHT22;2482;49.154;8.254;2023-04-03T03:17:52;2.80;99.90
4934;DHT22;2482;49.154;8.254;2023-04-03T03:20:19;2.80;99.90
4934;DHT22;2482;49.154;8.254;2023-04-03T03:22:47;2.80;99.90
4934;DHT22;2482;49.154;8.254;2023-04-03T03:25:14;2.80;99.90
4934;DHT22;2482;49.154;8.254;2023-04-03T03:27:41;2.90;99.90
4934;DHT22;2482;49.154;8.254;2023-04-03T03:30:08;3.00;99.90
4934;DHT22;2482;49.154;8.254;2023-04-03T03:32:35;3.00;99.90
4934;DHT22;2482;49.154;8.254;2023-04-03T03:35:03;3.00;99.90
4934;DHT22;2482;49.154;8.254;2023-04-03T03:37:30;3.00;99.90
4934;DHT22;2482;49.154;8.254;2023-04-03T03:39:57;3.00;99.90
4934;DHT22;2482;49.154;8.254;2023-04-03T03:42:24;3.00;99.90
4934;DHT22;2482;49.154;8.254;2023-04-03T03:44:51;3.00;99.90
4934;DHT22;2482;49.154;8.254;2023-04-03T03:47:18;3.00;99.90
4934;DHT22;2482;49.154;8.254;2023-04-03T03:49:45;3.10;99.90
4934;DHT22;2482;49.154;8.254;2023-04-03T03:52:12;3.10;99.90
4934;DHT22;2482;49.154;8.254;2023-04-03T03:54:39;3.00;99.90
4934;DHT22;2482;49.154;8.254;2023-04-03T03:57:06;3.00;99.90
4934;DHT22;2482;49.154;8.254;2023-04-03T03:59:33;3.10;99.90
4934;DHT22;2482;49.154;8.254;2023-04-03T04:02:00;3.10;99.90
4934;DHT22;2482;49.154;8.254;2023-04-03T04:04:27;3.10;99.90
4934;DHT22;2482;49.154;8.254;2023-04-03T04:06:54;3.10;99.90
4934;DHT22;2482;49.154;8.254;2023-04-03T04:09:21;3.10;99.90
4934;DHT22;2482;49.154;8.254;2023-04-03T04:11:48;3.00;99.90
4934;DHT22;2482;49.154;8.254;2023-04-03T04:14:15;3.00;99.90
4934;DHT22;2482;49.154;8.254;2023-04-03T04:16:42;3.00;99.90
4934;DHT22;2482;49.154;8.254;2023-04-03T04:19:09;3.10;99.90
4934;DHT22;2482;49.154;8.254;2023-04-03T04:21:36;3.00;99.90
4934;DHT22;2482;49.154;8.254;2023-04-03T04:24:03;3.10;99.90
4934;DHT22;2482;49.154;8.254;2023-04-03T04:26:31;2.90;99.90
4934;DHT22;2482;49.154;8.254;2023-04-03T04:28:58;3.10;99.90
4934;DHT22;2482;49.154;8.254;2023-04-03T04:31:25;3.10;99.90
4934;DHT22;2482;49.154;8.254;2023-04-03T04:33:53;3.00;99.90
4934;DHT22;2482;49.154;8.254;2023-04-03T04:36:20;3.10;99.90
4934;DHT22;2482;49.154;8.254;2023-04-03T04:38:47;3.00;99.90
4934;DHT22;2482;49.154;8.254;2023-04-03T04:41:14;2.70;99.90
4934;DHT22;2482;49.154;8.254;2023-04-03T04:43:41;2.80;99.90
4934;DHT22;2482;49.154;8.254;2023-04-03T04:46:09;2.60;99.90
4934;DHT22;2482;49.154;8.254;2023-04-03T04:48:39;2.30;99.90
4934;DHT22;2482;49.154;8.254;2023-04-03T04:51:07;2.10;99.90
4934;DHT22;2482;49.154;8.254;2023-04-03T04:53:34;2.10;99.90
4934;DHT22;2482;49.154;8.254;2023-04-03T04:56:01;2.10;99.90
4934;DHT22;2482;49.154;8.254;2023-04-03T04:58:28;2.10;99.90
4934;DHT22;2482;49.154;8.254;2023-04-03T05:00:59;2.10;99.90
4934;DHT22;2482;49.154;8.254;2023-04-03T05:03:26;2.00;99.90
4934;DHT22;2482;49.154;8.254;2023-04-03T05:05:53;2.00;99.90
4934;DHT22;2482;49.154;8.254;2023-04-03T05:08:20;1.90;99.90
4934;DHT22;2482;49.154;8.254;2023-04-03T05:10:48;1.90;99.90
4934;DHT22;2482;49.154;8.254;2023-04-03T05:13:15;1.90;99.90
4934;DHT22;2482;49.154;8.254;2023-04-03T05:15:42;1.90;99.90
4934;DHT22;2482;49.154;8.254;2023-04-03T05:18:09;1.90;99.90
4934;DHT22;2482;49.154;8.254;2023-04-03T05:20:36;1.70;99.90
4934;DHT22;2482;49.154;8.254;2023-04-03T05:23:03;1.60;99.90
4934;DHT22;2482;49.154;8.254;2023-04-03T05:25:30;1.80;99.90
4934;DHT22;2482;49.154;8.254;2023-04-03T05:27:57;1.70;99.90
4934;DHT22;2482;49.154;8.254;2023-04-03T05:30:24;1.70;99.90
4934;DHT22;2482;49.154;8.254;2023-04-03T05:32:51;1.80;99.90
4934;DHT22;2482;49.154;8.254;2023-04-03T05:35:18;1.80;99.90
4934;DHT22;2482;49.154;8.254;2023-04-03T05:37:45;1.70;99.90
4934;DHT22;2482;49.154;8.254;2023-04-03T05:40:12;1.70;99.90
4934;DHT22;2482;49.154;8.254;2023-04-03T05:42:39;1.60;99.90
4934;DHT22;2482;49.154;8.254;2023-04-03T05:45:07;1.60;99.90
4934;DHT22;2482;49.154;8.254;2023-04-03T05:47:34;1.80;99.90
4934;DHT22;2482;49.154;8.254;2023-04-03T05:50:01;1.80;99.90
4934;DHT22;2482;49.154;8.254;2023-04-03T05:52:37;1.80;99.90
4934;DHT22;2482;49.154;8.254;2023-04-03T05:55:05;2.00;99.90
4934;DHT22;2482;49.154;8.254;2023-04-03T05:57:32;2.10;99.90
4934;DHT22;2482;49.154;8.254;2023-04-03T06:00:00;2.20;99.90
4934;DHT22;2482;49.154;8.254;2023-04-03T06:02:27;2.20;99.90
4934;DHT22;2482;49.154;8.254;2023-04-03T06:04:54;2.30;99.90
4934;DHT22;2482;49.154;8.254;2023-04-03T06:07:22;2.40;99.90
4934;DHT22;2482;49.154;8.254;2023-04-03T06:09:52;2.50;99.90
4934;DHT22;2482;49.154;8.254;2023-04-03T06:12:20;2.70;99.90
4934;DHT22;2482;49.154;8.254;2023-04-03T06:14:47;2.70;99.90
4934;DHT22;2482;49.154;8.254;2023-04-03T06:17:15;2.80;99.90
4934;DHT22;2482;49.154;8.254;2023-04-03T06:19:45;2.90;99.90
4934;DHT22;2482;49.154;8.254;2023-04-03T06:22:13;3.00;99.90
4934;DHT22;2482;49.154;8.254;2023-04-03T06:24:40;3.10;99.90
4934;DHT22;2482;49.154;8.254;2023-04-03T06:27:07;3.30;99.90
4934;DHT22;2482;49.154;8.254;2023-04-03T06:29:34;3.30;99.90
4934;DHT22;2482;49.154;8.254;2023-04-03T06:32:01;3.40;99.90
4934;DHT22;2482;49.154;8.254;2023-04-03T06:34:28;3.50;99.90
4934;DHT22;2482;49.154;8.254;2023-04-03T06:36:55;3.60;99.90
4934;DHT22;2482;49.154;8.254;2023-04-03T06:39:23;3.80;99.90
4934;DHT22;2482;49.154;8.254;2023-04-03T06:41:50;3.90;99.90
4934;DHT22;2482;49.154;8.254;2023-04-03T06:44:18;4.00;99.90
4934;DHT22;2482;49.154;8.254;2023-04-03T06:46:45;4.10;99.90
4934;DHT22;2482;49.154;8.254;2023-04-03T06:49:13;4.10;99.90
4934;DHT22;2482;49.154;8.254;2023-04-03T06:51:41;4.20;99.90
4934;DHT22;2482;49.154;8.254;2023-04-03T06:54:08;4.30;99.90
4934;DHT22;2482;49.154;8.254;2023-04-03T06:56:36;4.40;99.90
4934;DHT22;2482;49.154;8.254;2023-04-03T06:59:03;4.60;99.90
4934;DHT22;2482;49.154;8.254;2023-04-03T07:01:30;4.40;99.90
4934;DHT22;2482;49.154;8.254;2023-04-03T07:03:58;4.60;99.90
4934;DHT22;2482;49.154;8.254;2023-04-03T07:06:25;4.80;99.90
4934;DHT22;2482;49.154;8.254;2023-04-03T07:08:54;4.70;99.90
4934;DHT22;2482;49.154;8.254;2023-04-03T07:11:22;4.70;99.90
4934;DHT22;2482;49.154;8.254;2023-04-03T07:13:49;4.60;99.90
4934;DHT22;2482;49.154;8.254;2023-04-03T07:16:17;4.60;99.90
4934;DHT22;2482;49.154;8.254;2023-04-03T07:18:44;4.80;99.90
4934;DHT22;2482;49.154;8.254;2023-04-03T07:21:12;5.00;99.90
4934;DHT22;2482;49.154;8.254;2023-04-03T07:23:39;5.00;99.90
4934;DHT22;2482;49.154;8.254;2023-04-03T07:26:06;5.10;99.90
4934;DHT22;2482;49.154;8.254;2023-04-03T07:28:34;5.40;99.90
4934;DHT22;2482;49.154;8.254;2023-04-03T07:31:06;5.30;99.90
4934;DHT22;2482;49.154;8.254;2023-04-03T07:33:36;5.40;99.90
4934;DHT22;2482;49.154;8.254;2023-04-03T07:36:05;5.30;99.90
4934;DHT22;2482;49.154;8.254;2023-04-03T07:38:37;5.20;99.90
4934;DHT22;2482;49.154;8.254;2023-04-03T07:41:04;5.50;99.90
4934;DHT22;2482;49.154;8.254;2023-04-03T07:43:31;5.30;99.90
4934;DHT22;2482;49.154;8.254;2023-04-03T07:45:58;5.30;99.90
4934;DHT22;2482;49.154;8.254;2023-04-03T07:48:26;5.40;99.90
4934;DHT22;2482;49.154;8.254;2023-04-03T07:50:53;5.70;99.90
4934;DHT22;2482;49.154;8.254;2023-04-03T07:53:20;5.60;99.90
4934;DHT22;2482;49.154;8.254;2023-04-03T07:55:48;5.90;99.90
4934;DHT22;2482;49.154;8.254;2023-04-03T07:58:18;5.90;99.90
4934;DHT22;2482;49.154;8.254;2023-04-03T08:00:45;5.90;99.90
4934;DHT22;2482;49.154;8.254;2023-04-03T08:03:14;5.80;99.90
4934;DHT22;2482;49.154;8.254;2023-04-03T08:05:48;5.80;99.90
4934;DHT22;2482;49.154;8.254;2023-04-03T08:08:18;5.90;99.90
4934;DHT22;2482;49.154;8.254;2023-04-03T08:10:51;5.80;99.90
4934;DHT22;2482;49.154;8.254;2023-04-03T08:13:20;5.80;99.90
4934;DHT22;2482;49.154;8.254;2023-04-03T08:15:47;6.20;99.90
4934;DHT22;2482;49.154;8.254;2023-04-03T08:18:14;6.20;99.90
4934;DHT22;2482;49.154;8.254;2023-04-03T08:20:43;6.40;99.90
4934;DHT22;2482;49.154;8.254;2023-04-03T08:23:10;6.30;99.90
4934;DHT22;2482;49.154;8.254;2023-04-03T08:25:39;6.40;99.90
4934;DHT22;2482;49.154;8.254;2023-04-03T08:28:08;6.40;99.90
4934;DHT22;2482;49.154;8.254;2023-04-03T08:30:38;6.40;99.90
4934;DHT22;2482;49.154;8.254;2023-04-03T08:33:06;6.50;99.90
4934;DHT22;2482;49.154;8.254;2023-04-03T08:35:38;6.30;99.90
4934;DHT22;2482;49.154;8.254;2023-04-03T08:38:08;6.30;99.90
4934;DHT22;2482;49.154;8.254;2023-04-03T08:40:36;6.50;99.90
4934;DHT22;2482;49.154;8.254;2023-04-03T08:45:52;6.80;99.90
4934;DHT22;2482;49.154;8.254;2023-04-03T08:51:15;7.10;99.90
4934;DHT22;2482;49.154;8.254;2023-04-03T08:53:54;7.20;99.90
4934;DHT22;2482;49.154;8.254;2023-04-03T08:56:24;7.30;99.90
4934;DHT22;2482;49.154;8.254;2023-04-03T08:58:58;7.70;99.90
4934;DHT22;2482;49.154;8.254;2023-04-03T09:01:35;7.80;99.90
4934;DHT22;2482;49.154;8.254;2023-04-03T09:04:13;8.00;99.90
4934;DHT22;2482;49.154;8.254;2023-04-03T09:06:57;8.10;99.90
4934;DHT22;2482;49.154;8.254;2023-04-03T09:09:39;7.70;99.90
4934;DHT22;2482;49.154;8.254;2023-04-03T09:12:24;7.40;99.90
4934;DHT22;2482;49.154;8.254;2023-04-03T09:20:49;6.90;99.90
4934;DHT22;2482;49.154;8.254;2023-04-03T09:26:28;7.50;99.90
4934;DHT22;2482;49.154;8.254;2023-04-03T09:29:01;7.50;99.90
4934;DHT22;2482;49.154;8.254;2023-04-03T09:31:37;7.70;99.90
4934;DHT22;2482;49.154;8.254;2023-04-03T09:34:20;7.80;99.90
4934;DHT22;2482;49.154;8.254;2023-04-03T09:36:52;8.10;99.90
4934;DHT22;2482;49.154;8.254;2023-04-03T09:39:26;7.80;99.90
4934;DHT22;2482;49.154;8.254;2023-04-03T09:44:36;8.00;99.90
4934;DHT22;2482;49.154;8.254;2023-04-03T09:47:27;8.10;99.90
4934;DHT22;2482;49.154;8.254;2023-04-03T09:50:21;7.90;99.90
4934;DHT22;2482;49.154;8.254;2023-04-03T09:52:50;7.70;99.90
4934;DHT22;2482;49.154;8.254;2023-04-03T09:55:27;7.50;99.90
4934;DHT22;2482;49.154;8.254;2023-04-03T09:58:02;7.20;99.90
4934;DHT22;2482;49.154;8.254;2023-04-03T10:00:35;7.40;99.90
4934;DHT22;2482;49.154;8.254;2023-04-03T10:03:21;8.10;99.90
4934;DHT22;2482;49.154;8.254;2023-04-03T10:05:51;8.40;99.90
4934;DHT22;2482;49.154;8.254;2023-04-03T10:08:32;8.40;99.90
4934;DHT22;2482;49.154;8.254;2023-04-03T10:13:49;7.50;99.90
4934;DHT22;2482;49.154;8.254;2023-04-03T10:16:30;8.10;99.90
4934;DHT22;2482;49.154;8.254;2023-04-03T10:22:13;8.70;99.90
4934;DHT22;2482;49.154;8.254;2023-04-03T10:36:57;7.80;99.90
4934;DHT22;2482;49.154;8.254;2023-04-03T10:42:48;7.50;99.90
4934;DHT22;2482;49.154;8.254;2023-04-03T10:48:31;7.50;99.90
4934;DHT22;2482;49.154;8.254;2023-04-03T10:54:35;7.80;99.90
4934;DHT22;2482;49.154;8.254;2023-04-03T10:57:06;8.60;99.90
4934;DHT22;2482;49.154;8.254;2023-04-03T10:59:46;8.90;99.90
4934;DHT22;2482;49.154;8.254;2023-04-03T11:02:37;8.50;99.90
4934;DHT22;2482;49.154;8.254;2023-04-03T11:07:52;8.20;99.90
4934;DHT22;2482;49.154;8.254;2023-04-03T11:10:45;8.10;99.90
4934;DHT22;2482;49.154;8.254;2023-04-03T11:13:18;8.10;99.90
4934;DHT22;2482;49.154;8.254;2023-04-03T11:15:51;8.20;99.90
4934;DHT22;2482;49.154;8.254;2023-04-03T11:18:28;8.60;99.90
4934;DHT22;2482;49.154;8.254;2023-04-03T11:21:26;8.60;99.90
4934;DHT22;2482;49.154;8.254;2023-04-03T11:23:57;8.60;99.90
4934;DHT22;2482;49.154;8.254;2023-04-03T11:26:31;8.60;99.90
4934;DHT22;2482;49.154;8.254;2023-04-03T11:29:04;8.70;99.90
4934;DHT22;2482;49.154;8.254;2023-04-03T11:35:08;8.50;99.90
4934;DHT22;2482;49.154;8.254;2023-04-03T11:37:43;8.40;99.90
4934;DHT22;2482;49.154;8.254;2023-04-03T11:42:49;8.20;99.90
4934;DHT22;2482;49.154;8.254;2023-04-03T11:47:54;8.50;99.90
4934;DHT22;2482;49.154;8.254;2023-04-03T12:01:48;9.60;99.90
4934;DHT22;2482;49.154;8.254;2023-04-03T12:04:21;9.20;99.90
4934;DHT22;2482;49.154;8.254;2023-04-03T12:07:00;9.20;99.90
4934;DHT22;2482;49.154;8.254;2023-04-03T12:27:03;8.50;99.90
4934;DHT22;2482;49.154;8.254;2023-04-03T12:32:48;8.70;99.90
4934;DHT22;2482;49.154;8.254;2023-04-03T12:35:44;8.70;99.90
4934;DHT22;2482;49.154;8.254;2023-04-03T12:41:24;8.50;99.90
4934;DHT22;2482;49.154;8.254;2023-04-03T12:46:52;8.70;99.90
4934;DHT22;2482;49.154;8.254;2023-04-03T12:51:55;8.70;99.90
4934;DHT22;2482;49.154;8.254;2023-04-03T12:54:32;9.10;99.90
4934;DHT22;2482;49.154;8.254;2023-04-03T12:59:46;9.20;99.90
4934;DHT22;2482;49.154;8.254;2023-04-03T13:02:28;9.40;99.90
4934;DHT22;2482;49.154;8.254;2023-04-03T13:04:59;8.80;99.90
4934;DHT22;2482;49.154;8.254;2023-04-03T13:07:35;8.60;99.90
4934;DHT22;2482;49.154;8.254;2023-04-03T13:12:56;8.20;99.90
4934;DHT22;2482;49.154;8.254;2023-04-03T13:15:41;8.40;99.90
4934;DHT22;2482;49.154;8.254;2023-04-03T13:18:33;8.60;99.90
4934;DHT22;2482;49.154;8.254;2023-04-03T13:21:13;9.10;99.90
4934;DHT22;2482;49.154;8.254;2023-04-03T13:23:45;8.90;99.90
4934;DHT22;2482;49.154;8.254;2023-04-03T13:26:20;8.50;99.90
4934;DHT22;2482;49.154;8.254;2023-04-03T13:28:49;8.40;99.90
4934;DHT22;2482;49.154;8.254;2023-04-03T13:31:25;8.20;99.90
4934;DHT22;2482;49.154;8.254;2023-04-03T13:36:54;8.50;99.90
4934;DHT22;2482;49.154;8.254;2023-04-03T13:39:38;8.50;99.90
4934;DHT22;2482;49.154;8.254;2023-04-03T13:42:21;8.40;99.90
4934;DHT22;2482;49.154;8.254;2023-04-03T13:45:22;8.20;99.90
4934;DHT22;2482;49.154;8.254;2023-04-03T13:47:52;8.50;99.90
4934;DHT22;2482;49.154;8.254;2023-04-03T13:50:24;8.70;99.90
4934;DHT22;2482;49.154;8.254;2023-04-03T13:53:08;8.40;99.90
4934;DHT22;2482;49.154;8.254;2023-04-03T13:58:26;8.20;99.90
4934;DHT22;2482;49.154;8.254;2023-04-03T14:01:41;8.40;99.90
4934;DHT22;2482;49.154;8.254;2023-04-03T14:03:54;8.30;99.90
4934;DHT22;2482;49.154;8.254;2023-04-03T14:06:23;8.20;99.90
4934;DHT22;2482;49.154;8.254;2023-04-03T14:08:51;8.50;99.90
4934;DHT22;2482;49.154;8.254;2023-04-03T14:11:24;8.40;99.90
4934;DHT22;2482;49.154;8.254;2023-04-03T14:14:00;8.30;99.90
4934;DHT22;2482;49.154;8.254;2023-04-03T14:16:31;8.30;99.90
4934;DHT22;2482;49.154;8.254;2023-04-03T14:18:59;8.60;99.90
4934;DHT22;2482;49.154;8.254;2023-04-03T14:21:26;8.70;99.90
4934;DHT22;2482;49.154;8.254;2023-04-03T14:23:53;8.80;99.90
4934;DHT22;2482;49.154;8.254;2023-04-03T14:26:23;8.70;99.90
4934;DHT22;2482;49.154;8.254;2023-04-03T14:28:54;8.70;99.90
4934;DHT22;2482;49.154;8.254;2023-04-03T14:31:22;8.70;99.90
4934;DHT22;2482;49.154;8.254;2023-04-03T14:33:49;8.80;99.90
4934;DHT22;2482;49.154;8.254;2023-04-03T14:36:22;9.00;99.90
4934;DHT22;2482;49.154;8.254;2023-04-03T14:38:52;9.20;99.90
4934;DHT22;2482;49.154;8.254;2023-04-03T14:41:22;9.40;99.90
4934;DHT22;2482;49.154;8.254;2023-04-03T14:43:51;9.40;99.90
4934;DHT22;2482;49.154;8.254;2023-04-03T14:46:39;9.30;99.90
4934;DHT22;2482;49.154;8.254;2023-04-03T14:49:25;9.20;99.90
4934;DHT22;2482;49.154;8.254;2023-04-03T14:51:56;8.90;99.90
4934;DHT22;2482;49.154;8.254;2023-04-03T14:54:24;8.60;99.90
4934;DHT22;2482;49.154;8.254;2023-04-03T14:56:55;8.70;99.90
4934;DHT22;2482;49.154;8.254;2023-04-03T14:59:22;8.60;99.90
4934;DHT22;2482;49.154;8.254;2023-04-03T15:01:50;8.60;99.90
4934;DHT22;2482;49.154;8.254;2023-04-03T15:04:19;8.20;99.90
4934;DHT22;2482;49.154;8.254;2023-04-03T15:06:48;8.00;99.90
4934;DHT22;2482;49.154;8.254;2023-04-03T15:11:49;8.30;99.90
4934;DHT22;2482;49.154;8.254;2023-04-03T15:14:18;8.40;99.90
4934;DHT22;2482;49.154;8.254;2023-04-03T15:17:04;8.60;99.40
4934;DHT22;2482;49.154;8.254;2023-04-03T15:19:37;8.80;99.90
4934;DHT22;2482;49.154;8.254;2023-04-03T15:22:05;9.00;99.90
4934;DHT22;2482;49.154;8.254;2023-04-03T15:24:33;9.00;99.10
4934;DHT22;2482;49.154;8.254;2023-04-03T15:27:00;9.10;99.10
4934;DHT22;2482;49.154;8.254;2023-04-03T15:29:28;9.20;99.90
4934;DHT22;2482;49.154;8.254;2023-04-03T15:31:55;9.10;99.90
4934;DHT22;2482;49.154;8.254;2023-04-03T15:34:22;8.80;99.90
4934;DHT22;2482;49.154;8.254;2023-04-03T15:36:49;8.90;99.90
4934;DHT22;2482;49.154;8.254;2023-04-03T15:39:20;8.60;99.90
4934;DHT22;2482;49.154;8.254;2023-04-03T15:41:47;8.30;99.90
4934;DHT22;2482;49.154;8.254;2023-04-03T15:44:15;8.00;99.90
4934;DHT22;2482;49.154;8.254;2023-04-03T15:46:48;7.90;99.90
4934;DHT22;2482;49.154;8.254;2023-04-03T15:49:21;8.10;99.90
4934;DHT22;2482;49.154;8.254;2023-04-03T15:51:48;8.00;99.90
4934;DHT22;2482;49.154;8.254;2023-04-03T15:54:16;8.20;99.90
4934;DHT22;2482;49.154;8.254;2023-04-03T15:56:43;8.50;99.90
4934;DHT22;2482;49.154;8.254;2023-04-03T15:59:10;8.50;99.70
4934;DHT22;2482;49.154;8.254;2023-04-03T16:01:38;8.50;99.20
4934;DHT22;2482;49.154;8.254;2023-04-03T16:04:08;8.40;98.40
4934;DHT22;2482;49.154;8.254;2023-04-03T16:06:38;8.40;99.10
4934;DHT22;2482;49.154;8.254;2023-04-03T16:09:05;8.50;99.40
4934;DHT22;2482;49.154;8.254;2023-04-03T16:11:33;8.50;99.90
4934;DHT22;2482;49.154;8.254;2023-04-03T16:14:01;8.40;99.90
4934;DHT22;2482;49.154;8.254;2023-04-03T16:16:29;8.40;99.00
4934;DHT22;2482;49.154;8.254;2023-04-03T16:18:56;8.20;97.90
4934;DHT22;2482;49.154;8.254;2023-04-03T16:21:24;8.30;99.20
4934;DHT22;2482;49.154;8.254;2023-04-03T16:23:51;8.20;99.80
4934;DHT22;2482;49.154;8.254;2023-04-03T16:26:18;8.10;98.40
4934;DHT22;2482;49.154;8.254;2023-04-03T16:28:45;8.20;99.80
4934;DHT22;2482;49.154;8.254;2023-04-03T16:31:12;8.10;97.10
4934;DHT22;2482;49.154;8.254;2023-04-03T16:33:39;8.10;99.50
4934;DHT22;2482;49.154;8.254;2023-04-03T16:36:07;8.20;98.10
4934;DHT22;2482;49.154;8.254;2023-04-03T16:38:34;8.10;98.70
4934;DHT22;2482;49.154;8.254;2023-04-03T16:41:02;8.20;99.90
4934;DHT22;2482;49.154;8.254;2023-04-03T16:43:31;8.30;99.60
4934;DHT22;2482;49.154;8.254;2023-04-03T16:45:59;8.00;99.50
4934;DHT22;2482;49.154;8.254;2023-04-03T16:48:29;8.10;99.90
4934;DHT22;2482;49.154;8.254;2023-04-03T16:50:56;8.10;98.60
4934;DHT22;2482;49.154;8.254;2023-04-03T16:53:24;8.10;98.30
4934;DHT22;2482;49.154;8.254;2023-04-03T16:55:53;8.00;99.80
4934;DHT22;2482;49.154;8.254;2023-04-03T16:58:20;8.00;98.00
4934;DHT22;2482;49.154;8.254;2023-04-03T17:00:49;8.00;98.40
4934;DHT22;2482;49.154;8.254;2023-04-03T17:03:17;8.00;99.90
4934;DHT22;2482;49.154;8.254;2023-04-03T17:05:47;7.90;99.90
4934;DHT22;2482;49.154;8.254;2023-04-03T17:08:16;7.80;99.90
4934;DHT22;2482;49.154;8.254;2023-04-03T17:10:43;7.80;99.90
4934;DHT22;2482;49.154;8.254;2023-04-03T17:13:10;7.70;99.10
4934;DHT22;2482;49.154;8.254;2023-04-03T17:15:37;7.70;98.50
4934;DHT22;2482;49.154;8.254;2023-04-03T17:18:05;7.70;97.30
4934;DHT22;2482;49.154;8.254;2023-04-03T17:20:33;7.60;98.20
4934;DHT22;2482;49.154;8.254;2023-04-03T17:23:00;7.60;98.90
4934;DHT22;2482;49.154;8.254;2023-04-03T17:25:27;7.50;99.60
4934;DHT22;2482;49.154;8.254;2023-04-03T17:27:55;7.30;99.40
4934;DHT22;2482;49.154;8.254;2023-04-03T17:30:22;7.30;98.70
4934;DHT22;2482;49.154;8.254;2023-04-03T17:32:49;7.20;99.10
4934;DHT22;2482;49.154;8.254;2023-04-03T17:35:16;7.20;99.90
4934;DHT22;2482;49.154;8.254;2023-04-03T17:37:43;7.20;99.70
4934;DHT22;2482;49.154;8.254;2023-04-03T17:40:11;7.10;99.80
4934;DHT22;2482;49.154;8.254;2023-04-03T17:42:39;7.10;99.90
4934;DHT22;2482;49.154;8.254;2023-04-03T17:45:07;6.90;99.90
4934;DHT22;2482;49.154;8.254;2023-04-03T17:47:35;6.80;99.90
4934;DHT22;2482;49.154;8.254;2023-04-03T17:50:02;6.70;99.90
4934;DHT22;2482;49.154;8.254;2023-04-03T17:52:29;6.50;99.90
4934;DHT22;2482;49.154;8.254;2023-04-03T17:54:57;6.70;99.90
4934;DHT22;2482;49.154;8.254;2023-04-03T17:57:24;6.60;99.90
4934;DHT22;2482;49.154;8.254;2023-04-03T17:59:51;6.50;99.90
4934;DHT22;2482;49.154;8.254;2023-04-03T18:02:19;6.30;99.90
4934;DHT22;2482;49.154;8.254;2023-04-03T18:04:46;6.30;99.90
4934;DHT22;2482;49.154;8.254;2023-04-03T18:07:13;6.30;99.90
4934;DHT22;2482;49.154;8.254;2023-04-03T18:09:40;6.10;99.90
4934;DHT22;2482;49.154;8.254;2023-04-03T18:12:08;6.00;99.90
4934;DHT22;2482;49.154;8.254;2023-04-03T18:14:37;5.80;99.90
4934;DHT22;2482;49.154;8.254;2023-04-03T18:17:04;5.90;99.90
4934;DHT22;2482;49.154;8.254;2023-04-03T18:19:32;5.70;99.90
4934;DHT22;2482;49.154;8.254;2023-04-03T18:22:02;5.70;99.90
4934;DHT22;2482;49.154;8.254;2023-04-03T18:24:32;5.60;99.90
4934;DHT22;2482;49.154;8.254;2023-04-03T18:27:13;5.60;99.90
4934;DHT22;2482;49.154;8.254;2023-04-03T18:29:44;5.60;99.90